world map with OMO marked

OMO - Airport

This information may not be accurate or current and is not valid for navigation or flight planning. No warranty of fitness for any purpose is made or implied.

flag of Bosnia and Herzegovina

Donate via PayPal

Additional information is available on the NEW Great Circle Mapper

Location
City:  Mostar, Bosnia and Herzegovina
Name:Mostar International Airport
ICAO / IATA:LQMO / OMO

Details
Type:Airport (Aerodrome, Airfield)
Use:Public/Civil
Latitude:43°16'58"N (43.282900)
Longitude:17°50'45"E (17.845878)
Datum:WGS 1984
Elevation:156 ft (48 m)
Runways:1
Longest:7874 × 158 ft (2400 × 48 m)

Time
Timezone:UTC+1 (DST+4)
Local Time:

Weather
METAR:LQMO  221900Z 33007KT 9000 RA SCT025 BKN044 04/03 Q1001
TAF:LQMO  (expired)

Related Locations
Nearby:
Farthest:CHT: 11722 mi / 18866 km
Waitangi [Tuuta], CIT, NZ

Find:

   beyond  
but within

Other Information
Maps:
Links:
Sources:

  


 


Great Circle Mapper   Great Circle Mapper
Great Circle Mapper FAQ   Great Circle Mapper FAQ
  Karl's Home Page
KLSē   KLSē Home
   GC on Facebook
Airlines of the World   Airlines of the World
Donate via PayPal


Copyright © 2004-2019, Karl L. Swartz. All rights reserved.
All trademarks mentioned herein belong to their respective owners.

Please see credits for attribution and copyright information.

Karl Swartz <karl@kls2.com>
  Powered by FreeBSD
Valid HTML 4.01!
Labeled with ICRA
hCard Microformat
Geo Microformat